Los Angeles, California
Current Conditions -  °F | °C
As of 3:47 AM on Thursday 29 Jan 2015 (Local Time) from KCQT Reporting Station
Clear Clear  
Wind Chill: 62°   Ceiling: Unl
Heat Index: 62°   Visibility: 10mi
Dew Point: 45°   Wind: 0mph
Humidity: 53%   Direction: NA
Pressure: 30.02"   Gusts: NA
Location:  34.05°N, 118.24°W
Report Text: KCQT 291147Z AUTO 00000KT 10SM CLR 17/07 A3002 RMK AO2 SLP165 T01670072 10183 20161 58008 $
Loading
Personal Weather Stations






























Interactive Weather Map New forecast layout! Learn more

10-Day Weather Forecast

Advertisements
Track Severe Weather on mobile